sensor_id;sensor_type;location;lat;lon;timestamp;P1;durP1;ratioP1;P2;durP2;ratioP2
16270;SDS011;8243;49.048;8.396;2023-09-07T00:01:53;5.77;;;5.10;;
16270;SDS011;8243;49.048;8.396;2023-09-07T00:04:19;8.33;;;5.53;;
16270;SDS011;8243;49.048;8.396;2023-09-07T00:06:46;8.87;;;5.57;;
16270;SDS011;8243;49.048;8.396;2023-09-07T00:09:12;6.80;;;5.73;;
16270;SDS011;8243;49.048;8.396;2023-09-07T00:11:38;8.03;;;5.57;;
16270;SDS011;8243;49.048;8.396;2023-09-07T00:14:04;7.07;;;5.73;;
16270;SDS011;8243;49.048;8.396;2023-09-07T00:16:32;6.70;;;6.07;;
16270;SDS011;8243;49.048;8.396;2023-09-07T00:19:03;8.07;;;6.10;;
16270;SDS011;8243;49.048;8.396;2023-09-07T00:21:29;8.47;;;5.80;;
16270;SDS011;8243;49.048;8.396;2023-09-07T00:23:55;6.53;;;5.87;;
16270;SDS011;8243;49.048;8.396;2023-09-07T00:26:20;6.30;;;5.70;;
16270;SDS011;8243;49.048;8.396;2023-09-07T00:28:46;6.23;;;5.60;;
16270;SDS011;8243;49.048;8.396;2023-09-07T00:31:12;7.37;;;5.37;;
16270;SDS011;8243;49.048;8.396;2023-09-07T00:33:37;6.07;;;5.57;;
16270;SDS011;8243;49.048;8.396;2023-09-07T00:36:03;6.70;;;5.80;;
16270;SDS011;8243;49.048;8.396;2023-09-07T00:38:30;6.23;;;5.73;;
16270;SDS011;8243;49.048;8.396;2023-09-07T00:40:56;6.63;;;6.00;;
16270;SDS011;8243;49.048;8.396;2023-09-07T00:43:21;6.03;;;5.20;;
16270;SDS011;8243;49.048;8.396;2023-09-07T00:45:47;7.63;;;5.67;;
16270;SDS011;8243;49.048;8.396;2023-09-07T00:48:14;6.70;;;6.10;;
16270;SDS011;8243;49.048;8.396;2023-09-07T00:50:41;7.60;;;5.73;;
16270;SDS011;8243;49.048;8.396;2023-09-07T00:53:07;7.43;;;5.70;;
16270;SDS011;8243;49.048;8.396;2023-09-07T00:55:35;6.30;;;5.70;;
16270;SDS011;8243;49.048;8.396;2023-09-07T00:58:03;6.63;;;5.77;;
16270;SDS011;8243;49.048;8.396;2023-09-07T01:00:30;8.17;;;5.97;;
16270;SDS011;8243;49.048;8.396;2023-09-07T01:02:57;6.80;;;6.10;;
16270;SDS011;8243;49.048;8.396;2023-09-07T01:05:24;6.20;;;5.57;;
16270;SDS011;8243;49.048;8.396;2023-09-07T01:07:58;8.43;;;5.70;;
16270;SDS011;8243;49.048;8.396;2023-09-07T01:10:30;6.03;;;5.43;;
16270;SDS011;8243;49.048;8.396;2023-09-07T01:12:56;6.03;;;5.10;;
16270;SDS011;8243;49.048;8.396;2023-09-07T01:15:21;6.23;;;5.63;;
16270;SDS011;8243;49.048;8.396;2023-09-07T01:17:47;5.83;;;5.20;;
16270;SDS011;8243;49.048;8.396;2023-09-07T01:20:14;5.20;;;4.70;;
16270;SDS011;8243;49.048;8.396;2023-09-07T01:22:41;5.67;;;5.07;;
16270;SDS011;8243;49.048;8.396;2023-09-07T01:25:08;8.17;;;5.80;;
16270;SDS011;8243;49.048;8.396;2023-09-07T01:27:34;5.73;;;5.23;;
16270;SDS011;8243;49.048;8.396;2023-09-07T01:30:00;6.10;;;4.97;;
16270;SDS011;8243;49.048;8.396;2023-09-07T01:32:27;7.07;;;5.43;;
16270;SDS011;8243;49.048;8.396;2023-09-07T01:34:56;7.00;;;5.53;;
16270;SDS011;8243;49.048;8.396;2023-09-07T01:37:23;6.47;;;5.33;;
16270;SDS011;8243;49.048;8.396;2023-09-07T01:39:49;6.07;;;5.50;;
16270;SDS011;8243;49.048;8.396;2023-09-07T01:42:15;6.20;;;5.60;;
16270;SDS011;8243;49.048;8.396;2023-09-07T01:44:40;6.23;;;5.63;;
16270;SDS011;8243;49.048;8.396;2023-09-07T01:47:06;6.53;;;5.83;;
16270;SDS011;8243;49.048;8.396;2023-09-07T01:49:32;6.50;;;5.83;;
16270;SDS011;8243;49.048;8.396;2023-09-07T01:51:57;6.93;;;6.33;;
16270;SDS011;8243;49.048;8.396;2023-09-07T01:54:23;8.50;;;5.10;;
16270;SDS011;8243;49.048;8.396;2023-09-07T01:56:49;7.33;;;5.73;;
16270;SDS011;8243;49.048;8.396;2023-09-07T01:59:14;5.57;;;5.07;;
16270;SDS011;8243;49.048;8.396;2023-09-07T02:01:40;6.20;;;4.80;;
16270;SDS011;8243;49.048;8.396;2023-09-07T02:04:06;5.77;;;5.27;;
16270;SDS011;8243;49.048;8.396;2023-09-07T02:06:31;6.73;;;5.10;;
16270;SDS011;8243;49.048;8.396;2023-09-07T02:08:57;5.90;;;5.20;;
16270;SDS011;8243;49.048;8.396;2023-09-07T02:11:23;4.83;;;4.33;;
16270;SDS011;8243;49.048;8.396;2023-09-07T02:13:49;5.93;;;5.33;;
16270;SDS011;8243;49.048;8.396;2023-09-07T02:16:14;5.50;;;5.00;;
16270;SDS011;8243;49.048;8.396;2023-09-07T02:18:41;5.30;;;4.67;;
16270;SDS011;8243;49.048;8.396;2023-09-07T02:21:11;6.73;;;4.53;;
16270;SDS011;8243;49.048;8.396;2023-09-07T02:23:37;4.70;;;4.30;;
16270;SDS011;8243;49.048;8.396;2023-09-07T02:26:04;5.30;;;3.70;;
16270;SDS011;8243;49.048;8.396;2023-09-07T02:28:30;4.67;;;4.27;;
16270;SDS011;8243;49.048;8.396;2023-09-07T02:31:02;4.10;;;3.80;;
16270;SDS011;8243;49.048;8.396;2023-09-07T02:33:28;4.27;;;3.70;;
16270;SDS011;8243;49.048;8.396;2023-09-07T02:35:54;5.80;;;4.20;;
16270;SDS011;8243;49.048;8.396;2023-09-07T02:38:20;4.77;;;4.13;;
16270;SDS011;8243;49.048;8.396;2023-09-07T02:40:46;4.07;;;3.67;;
16270;SDS011;8243;49.048;8.396;2023-09-07T02:43:11;5.07;;;3.67;;
16270;SDS011;8243;49.048;8.396;2023-09-07T02:45:38;4.40;;;4.00;;
16270;SDS011;8243;49.048;8.396;2023-09-07T02:48:04;6.17;;;3.80;;
16270;SDS011;8243;49.048;8.396;2023-09-07T02:50:31;4.77;;;3.80;;
16270;SDS011;8243;49.048;8.396;2023-09-07T02:52:58;5.10;;;3.70;;
16270;SDS011;8243;49.048;8.396;2023-09-07T02:55:29;5.50;;;3.87;;
16270;SDS011;8243;49.048;8.396;2023-09-07T02:57:57;6.93;;;3.67;;
16270;SDS011;8243;49.048;8.396;2023-09-07T03:00:24;5.17;;;3.90;;
16270;SDS011;8243;49.048;8.396;2023-09-07T03:02:50;4.30;;;3.90;;
16270;SDS011;8243;49.048;8.396;2023-09-07T03:05:17;4.13;;;3.80;;
16270;SDS011;8243;49.048;8.396;2023-09-07T03:07:44;5.83;;;4.30;;
16270;SDS011;8243;49.048;8.396;2023-09-07T03:10:12;4.47;;;3.80;;
16270;SDS011;8243;49.048;8.396;2023-09-07T03:12:38;4.07;;;3.70;;
16270;SDS011;8243;49.048;8.396;2023-09-07T03:15:04;3.43;;;3.13;;
16270;SDS011;8243;49.048;8.396;2023-09-07T03:17:31;5.80;;;4.30;;
16270;SDS011;8243;49.048;8.396;2023-09-07T03:19:56;4.10;;;3.70;;
16270;SDS011;8243;49.048;8.396;2023-09-07T03:22:23;4.63;;;4.13;;
16270;SDS011;8243;49.048;8.396;2023-09-07T03:24:50;5.60;;;4.23;;
16270;SDS011;8243;49.048;8.396;2023-09-07T03:27:16;4.30;;;3.90;;
16270;SDS011;8243;49.048;8.396;2023-09-07T03:29:42;4.57;;;3.97;;
16270;SDS011;8243;49.048;8.396;2023-09-07T03:32:09;4.60;;;4.10;;
16270;SDS011;8243;49.048;8.396;2023-09-07T03:34:35;5.73;;;4.03;;
16270;SDS011;8243;49.048;8.396;2023-09-07T03:37:01;5.83;;;4.00;;
16270;SDS011;8243;49.048;8.396;2023-09-07T03:39:27;5.53;;;3.97;;
16270;SDS011;8243;49.048;8.396;2023-09-07T03:41:53;6.33;;;4.27;;
16270;SDS011;8243;49.048;8.396;2023-09-07T03:44:19;4.03;;;3.73;;
16270;SDS011;8243;49.048;8.396;2023-09-07T03:46:45;5.27;;;4.30;;
16270;SDS011;8243;49.048;8.396;2023-09-07T03:49:11;5.23;;;4.30;;
16270;SDS011;8243;49.048;8.396;2023-09-07T03:51:37;4.33;;;3.93;;
16270;SDS011;8243;49.048;8.396;2023-09-07T03:54:02;4.63;;;3.73;;
16270;SDS011;8243;49.048;8.396;2023-09-07T03:56:28;4.57;;;3.93;;
16270;SDS011;8243;49.048;8.396;2023-09-07T03:58:54;7.30;;;4.10;;
16270;SDS011;8243;49.048;8.396;2023-09-07T04:01:20;4.50;;;4.07;;
16270;SDS011;8243;49.048;8.396;2023-09-07T04:03:45;5.37;;;3.90;;
16270;SDS011;8243;49.048;8.396;2023-09-07T04:06:11;4.50;;;4.10;;
16270;SDS011;8243;49.048;8.396;2023-09-07T04:08:37;4.40;;;4.00;;
16270;SDS011;8243;49.048;8.396;2023-09-07T04:11:03;4.43;;;4.03;;
16270;SDS011;8243;49.048;8.396;2023-09-07T04:13:29;4.67;;;4.27;;
16270;SDS011;8243;49.048;8.396;2023-09-07T04:15:55;4.40;;;4.03;;
16270;SDS011;8243;49.048;8.396;2023-09-07T04:18:20;5.60;;;4.37;;
16270;SDS011;8243;49.048;8.396;2023-09-07T04:20:46;4.97;;;4.57;;
16270;SDS011;8243;49.048;8.396;2023-09-07T04:23:12;6.03;;;4.10;;
16270;SDS011;8243;49.048;8.396;2023-09-07T04:25:37;4.80;;;4.33;;
16270;SDS011;8243;49.048;8.396;2023-09-07T04:28:07;6.23;;;4.73;;
16270;SDS011;8243;49.048;8.396;2023-09-07T04:30:42;6.00;;;4.77;;
16270;SDS011;8243;49.048;8.396;2023-09-07T04:33:07;4.67;;;4.27;;
16270;SDS011;8243;49.048;8.396;2023-09-07T04:35:33;4.83;;;4.43;;
16270;SDS011;8243;49.048;8.396;2023-09-07T04:37:59;5.40;;;4.90;;
16270;SDS011;8243;49.048;8.396;2023-09-07T04:40:24;5.80;;;4.50;;
16270;SDS011;8243;49.048;8.396;2023-09-07T04:42:50;5.23;;;4.73;;
16270;SDS011;8243;49.048;8.396;2023-09-07T04:45:16;5.30;;;4.90;;
16270;SDS011;8243;49.048;8.396;2023-09-07T04:47:42;5.80;;;4.60;;
16270;SDS011;8243;49.048;8.396;2023-09-07T04:50:09;6.40;;;5.10;;
16270;SDS011;8243;49.048;8.396;2023-09-07T04:52:35;5.37;;;4.87;;
16270;SDS011;8243;49.048;8.396;2023-09-07T04:55:01;5.37;;;4.97;;
16270;SDS011;8243;49.048;8.396;2023-09-07T04:57:29;7.60;;;5.00;;
16270;SDS011;8243;49.048;8.396;2023-09-07T04:59:55;5.87;;;5.10;;
16270;SDS011;8243;49.048;8.396;2023-09-07T05:02:21;5.60;;;4.93;;
16270;SDS011;8243;49.048;8.396;2023-09-07T05:04:47;9.17;;;5.50;;
16270;SDS011;8243;49.048;8.396;2023-09-07T05:07:12;7.03;;;4.53;;
16270;SDS011;8243;49.048;8.396;2023-09-07T05:09:38;5.60;;;5.10;;
16270;SDS011;8243;49.048;8.396;2023-09-07T05:12:04;5.57;;;4.63;;
16270;SDS011;8243;49.048;8.396;2023-09-07T05:14:30;6.27;;;5.30;;
16270;SDS011;8243;49.048;8.396;2023-09-07T05:16:55;7.90;;;5.37;;
16270;SDS011;8243;49.048;8.396;2023-09-07T05:19:21;5.63;;;5.13;;
16270;SDS011;8243;49.048;8.396;2023-09-07T05:21:47;7.23;;;5.00;;
16270;SDS011;8243;49.048;8.396;2023-09-07T05:24:13;5.40;;;4.90;;
16270;SDS011;8243;49.048;8.396;2023-09-07T05:26:41;6.03;;;5.07;;
16270;SDS011;8243;49.048;8.396;2023-09-07T05:29:07;6.27;;;4.53;;
16270;SDS011;8243;49.048;8.396;2023-09-07T05:31:33;6.93;;;4.87;;
16270;SDS011;8243;49.048;8.396;2023-09-07T05:33:58;7.20;;;5.00;;
16270;SDS011;8243;49.048;8.396;2023-09-07T05:36:26;7.07;;;4.87;;
16270;SDS011;8243;49.048;8.396;2023-09-07T05:39:00;8.70;;;5.20;;
16270;SDS011;8243;49.048;8.396;2023-09-07T05:41:27;5.60;;;5.20;;
16270;SDS011;8243;49.048;8.396;2023-09-07T05:43:54;5.23;;;4.80;;
16270;SDS011;8243;49.048;8.396;2023-09-07T05:46:20;7.07;;;5.00;;
16270;SDS011;8243;49.048;8.396;2023-09-07T05:48:46;6.37;;;4.57;;
16270;SDS011;8243;49.048;8.396;2023-09-07T05:51:13;5.73;;;4.80;;
16270;SDS011;8243;49.048;8.396;2023-09-07T05:53:39;4.70;;;4.20;;
16270;SDS011;8243;49.048;8.396;2023-09-07T05:56:04;5.07;;;4.10;;
16270;SDS011;8243;49.048;8.396;2023-09-07T05:58:30;5.97;;;4.17;;
16270;SDS011;8243;49.048;8.396;2023-09-07T06:00:56;5.27;;;4.27;;
16270;SDS011;8243;49.048;8.396;2023-09-07T06:03:21;4.13;;;3.73;;
16270;SDS011;8243;49.048;8.396;2023-09-07T06:05:47;4.37;;;4.00;;
16270;SDS011;8243;49.048;8.396;2023-09-07T06:08:13;4.20;;;3.80;;
16270;SDS011;8243;49.048;8.396;2023-09-07T06:10:38;4.93;;;3.77;;
16270;SDS011;8243;49.048;8.396;2023-09-07T06:13:04;5.33;;;3.60;;
16270;SDS011;8243;49.048;8.396;2023-09-07T06:15:30;5.00;;;3.83;;
16270;SDS011;8243;49.048;8.396;2023-09-07T06:17:56;8.57;;;4.50;;
16270;SDS011;8243;49.048;8.396;2023-09-07T06:20:22;6.27;;;3.90;;
16270;SDS011;8243;49.048;8.396;2023-09-07T06:22:48;5.53;;;3.63;;
16270;SDS011;8243;49.048;8.396;2023-09-07T06:25:14;4.43;;;3.97;;
16270;SDS011;8243;49.048;8.396;2023-09-07T06:27:40;5.37;;;3.70;;
16270;SDS011;8243;49.048;8.396;2023-09-07T06:30:05;5.57;;;3.63;;
16270;SDS011;8243;49.048;8.396;2023-09-07T06:32:33;5.07;;;3.33;;
16270;SDS011;8243;49.048;8.396;2023-09-07T06:34:58;6.23;;;3.80;;
16270;SDS011;8243;49.048;8.396;2023-09-07T06:37:24;5.17;;;3.77;;
16270;SDS011;8243;49.048;8.396;2023-09-07T06:39:50;4.73;;;3.87;;
16270;SDS011;8243;49.048;8.396;2023-09-07T06:42:16;3.50;;;3.20;;
16270;SDS011;8243;49.048;8.396;2023-09-07T06:44:42;5.33;;;4.00;;
16270;SDS011;8243;49.048;8.396;2023-09-07T06:47:08;3.70;;;3.40;;
16270;SDS011;8243;49.048;8.396;2023-09-07T06:49:33;3.87;;;3.50;;
16270;SDS011;8243;49.048;8.396;2023-09-07T06:51:59;3.97;;;3.63;;
16270;SDS011;8243;49.048;8.396;2023-09-07T06:54:28;4.33;;;3.93;;
16270;SDS011;8243;49.048;8.396;2023-09-07T06:56:54;4.17;;;3.63;;
16270;SDS011;8243;49.048;8.396;2023-09-07T06:59:19;4.40;;;3.90;;
16270;SDS011;8243;49.048;8.396;2023-09-07T07:01:45;6.37;;;3.83;;
16270;SDS011;8243;49.048;8.396;2023-09-07T07:04:11;4.57;;;3.30;;
16270;SDS011;8243;49.048;8.396;2023-09-07T07:06:36;6.17;;;3.70;;
16270;SDS011;8243;49.048;8.396;2023-09-07T07:09:02;5.43;;;3.40;;
16270;SDS011;8243;49.048;8.396;2023-09-07T07:11:28;5.10;;;3.30;;
16270;SDS011;8243;49.048;8.396;2023-09-07T07:13:53;4.37;;;3.80;;
16270;SDS011;8243;49.048;8.396;2023-09-07T07:16:19;4.33;;;3.93;;
16270;SDS011;8243;49.048;8.396;2023-09-07T07:18:45;6.07;;;3.67;;
16270;SDS011;8243;49.048;8.396;2023-09-07T07:21:10;3.63;;;3.30;;
16270;SDS011;8243;49.048;8.396;2023-09-07T07:23:36;4.53;;;3.67;;
16270;SDS011;8243;49.048;8.396;2023-09-07T07:26:02;5.33;;;3.30;;
16270;SDS011;8243;49.048;8.396;2023-09-07T07:28:28;5.60;;;4.00;;
16270;SDS011;8243;49.048;8.396;2023-09-07T07:30:54;6.10;;;3.73;;
16270;SDS011;8243;49.048;8.396;2023-09-07T07:33:20;3.87;;;3.57;;
16270;SDS011;8243;49.048;8.396;2023-09-07T07:35:47;6.73;;;3.97;;
16270;SDS011;8243;49.048;8.396;2023-09-07T07:38:13;3.93;;;3.53;;
16270;SDS011;8243;49.048;8.396;2023-09-07T07:40:39;4.37;;;3.97;;
16270;SDS011;8243;49.048;8.396;2023-09-07T07:43:05;3.67;;;3.37;;
16270;SDS011;8243;49.048;8.396;2023-09-07T07:45:32;5.37;;;3.90;;
16270;SDS011;8243;49.048;8.396;2023-09-07T07:48:03;4.37;;;3.60;;
16270;SDS011;8243;49.048;8.396;2023-09-07T07:50:30;4.37;;;3.77;;
16270;SDS011;8243;49.048;8.396;2023-09-07T07:52:56;4.10;;;3.70;;
16270;SDS011;8243;49.048;8.396;2023-09-07T07:55:22;4.33;;;3.83;;
16270;SDS011;8243;49.048;8.396;2023-09-07T07:57:47;5.90;;;4.00;;
16270;SDS011;8243;49.048;8.396;2023-09-07T08:00:13;4.60;;;3.73;;
16270;SDS011;8243;49.048;8.396;2023-09-07T08:02:39;4.87;;;3.93;;
16270;SDS011;8243;49.048;8.396;2023-09-07T08:05:05;5.50;;;3.93;;
16270;SDS011;8243;49.048;8.396;2023-09-07T08:07:31;5.73;;;3.67;;
16270;SDS011;8243;49.048;8.396;2023-09-07T08:09:57;5.10;;;3.70;;
16270;SDS011;8243;49.048;8.396;2023-09-07T08:12:26;5.53;;;4.20;;
16270;SDS011;8243;49.048;8.396;2023-09-07T08:14:52;4.17;;;3.77;;
16270;SDS011;8243;49.048;8.396;2023-09-07T08:17:17;4.07;;;3.67;;
16270;SDS011;8243;49.048;8.396;2023-09-07T08:19:45;4.47;;;4.03;;
16270;SDS011;8243;49.048;8.396;2023-09-07T08:22:14;6.97;;;3.70;;
16270;SDS011;8243;49.048;8.396;2023-09-07T08:24:41;6.73;;;3.90;;
16270;SDS011;8243;49.048;8.396;2023-09-07T08:27:07;4.20;;;3.80;;
16270;SDS011;8243;49.048;8.396;2023-09-07T08:29:37;6.67;;;3.73;;
16270;SDS011;8243;49.048;8.396;2023-09-07T08:32:02;4.53;;;4.13;;
16270;SDS011;8243;49.048;8.396;2023-09-07T08:34:29;4.40;;;4.00;;
16270;SDS011;8243;49.048;8.396;2023-09-07T08:36:56;3.93;;;3.53;;
16270;SDS011;8243;49.048;8.396;2023-09-07T08:39:25;4.70;;;3.97;;
16270;SDS011;8243;49.048;8.396;2023-09-07T08:41:51;4.17;;;3.77;;
16270;SDS011;8243;49.048;8.396;2023-09-07T08:44:17;5.87;;;3.90;;
16270;SDS011;8243;49.048;8.396;2023-09-07T08:46:44;3.77;;;3.47;;
16270;SDS011;8243;49.048;8.396;2023-09-07T08:49:11;4.10;;;3.70;;
16270;SDS011;8243;49.048;8.396;2023-09-07T08:51:37;4.30;;;3.83;;
16270;SDS011;8243;49.048;8.396;2023-09-07T08:54:04;4.53;;;4.13;;
16270;SDS011;8243;49.048;8.396;2023-09-07T08:56:30;5.47;;;3.90;;
16270;SDS011;8243;49.048;8.396;2023-09-07T08:58:56;4.30;;;4.00;;
16270;SDS011;8243;49.048;8.396;2023-09-07T09:01:22;4.70;;;3.50;;
16270;SDS011;8243;49.048;8.396;2023-09-07T09:03:49;5.07;;;4.20;;
16270;SDS011;8243;49.048;8.396;2023-09-07T09:06:16;6.20;;;3.70;;
16270;SDS011;8243;49.048;8.396;2023-09-07T09:11:14;3.83;;;3.50;;
16270;SDS011;8243;49.048;8.396;2023-09-07T09:13:41;6.63;;;4.23;;
16270;SDS011;8243;49.048;8.396;2023-09-07T09:16:07;6.67;;;3.97;;
16270;SDS011;8243;49.048;8.396;2023-09-07T09:18:49;5.80;;;4.00;;
16270;SDS011;8243;49.048;8.396;2023-09-07T09:21:17;4.47;;;3.53;;
16270;SDS011;8243;49.048;8.396;2023-09-07T09:23:46;3.90;;;3.60;;
16270;SDS011;8243;49.048;8.396;2023-09-07T09:26:13;4.27;;;3.83;;
16270;SDS011;8243;49.048;8.396;2023-09-07T09:28:38;6.97;;;3.73;;
16270;SDS011;8243;49.048;8.396;2023-09-07T09:31:04;4.43;;;4.03;;
16270;SDS011;8243;49.048;8.396;2023-09-07T09:33:30;5.10;;;3.83;;
16270;SDS011;8243;49.048;8.396;2023-09-07T09:35:57;4.80;;;3.90;;
16270;SDS011;8243;49.048;8.396;2023-09-07T09:38:23;4.97;;;4.10;;
16270;SDS011;8243;49.048;8.396;2023-09-07T09:40:51;4.20;;;3.80;;
16270;SDS011;8243;49.048;8.396;2023-09-07T09:43:21;3.93;;;3.63;;
16270;SDS011;8243;49.048;8.396;2023-09-07T09:45:48;5.70;;;4.00;;
16270;SDS011;8243;49.048;8.396;2023-09-07T09:48:16;3.80;;;3.50;;
16270;SDS011;8243;49.048;8.396;2023-09-07T09:50:45;4.13;;;3.73;;
16270;SDS011;8243;49.048;8.396;2023-09-07T09:53:13;5.23;;;3.73;;
16270;SDS011;8243;49.048;8.396;2023-09-07T09:55:48;5.67;;;3.93;;
16270;SDS011;8243;49.048;8.396;2023-09-07T09:58:17;9.00;;;4.50;;
16270;SDS011;8243;49.048;8.396;2023-09-07T10:00:44;4.37;;;3.97;;
16270;SDS011;8243;49.048;8.396;2023-09-07T10:05:44;6.13;;;3.90;;
16270;SDS011;8243;49.048;8.396;2023-09-07T10:08:14;4.33;;;3.70;;
16270;SDS011;8243;49.048;8.396;2023-09-07T10:10:43;4.50;;;4.10;;
16270;SDS011;8243;49.048;8.396;2023-09-07T10:13:13;4.97;;;3.90;;
16270;SDS011;8243;49.048;8.396;2023-09-07T10:15:39;5.37;;;4.43;;
16270;SDS011;8243;49.048;8.396;2023-09-07T10:20:56;4.27;;;3.77;;
16270;SDS011;8243;49.048;8.396;2023-09-07T10:23:34;6.10;;;4.00;;
16270;SDS011;8243;49.048;8.396;2023-09-07T10:26:15;7.53;;;4.30;;
16270;SDS011;8243;49.048;8.396;2023-09-07T10:28:45;5.37;;;3.87;;
16270;SDS011;8243;49.048;8.396;2023-09-07T10:31:17;4.80;;;4.07;;
16270;SDS011;8243;49.048;8.396;2023-09-07T10:33:44;4.73;;;4.00;;
16270;SDS011;8243;49.048;8.396;2023-09-07T10:36:27;5.23;;;3.93;;
16270;SDS011;8243;49.048;8.396;2023-09-07T10:38:55;4.40;;;3.80;;
16270;SDS011;8243;49.048;8.396;2023-09-07T10:41:22;4.57;;;4.17;;
16270;SDS011;8243;49.048;8.396;2023-09-07T10:46:14;5.17;;;3.87;;
16270;SDS011;8243;49.048;8.396;2023-09-07T10:48:40;4.10;;;3.80;;
16270;SDS011;8243;49.048;8.396;2023-09-07T10:51:06;6.50;;;3.80;;
16270;SDS011;8243;49.048;8.396;2023-09-07T10:53:32;4.60;;;4.20;;
16270;SDS011;8243;49.048;8.396;2023-09-07T10:56:07;5.33;;;4.00;;
16270;SDS011;8243;49.048;8.396;2023-09-07T10:58:33;5.00;;;4.50;;
16270;SDS011;8243;49.048;8.396;2023-09-07T11:01:00;7.87;;;3.87;;
16270;SDS011;8243;49.048;8.396;2023-09-07T11:03:28;5.20;;;3.90;;
16270;SDS011;8243;49.048;8.396;2023-09-07T11:05:55;4.67;;;4.23;;
16270;SDS011;8243;49.048;8.396;2023-09-07T11:08:28;8.10;;;4.20;;
16270;SDS011;8243;49.048;8.396;2023-09-07T11:10:54;4.50;;;4.00;;
16270;SDS011;8243;49.048;8.396;2023-09-07T11:13:21;4.20;;;3.90;;
16270;SDS011;8243;49.048;8.396;2023-09-07T11:15:49;6.40;;;4.27;;
16270;SDS011;8243;49.048;8.396;2023-09-07T11:18:19;4.40;;;3.97;;
16270;SDS011;8243;49.048;8.396;2023-09-07T11:20:46;7.00;;;4.30;;
16270;SDS011;8243;49.048;8.396;2023-09-07T11:23:13;3.97;;;3.43;;
16270;SDS011;8243;49.048;8.396;2023-09-07T11:25:40;4.37;;;3.93;;
16270;SDS011;8243;49.048;8.396;2023-09-07T11:28:07;3.90;;;3.60;;
16270;SDS011;8243;49.048;8.396;2023-09-07T11:30:33;5.07;;;4.00;;
16270;SDS011;8243;49.048;8.396;2023-09-07T11:33:00;4.20;;;3.90;;
16270;SDS011;8243;49.048;8.396;2023-09-07T11:35:30;4.37;;;4.07;;
16270;SDS011;8243;49.048;8.396;2023-09-07T11:37:56;4.27;;;3.67;;
16270;SDS011;8243;49.048;8.396;2023-09-07T11:40:21;4.70;;;4.30;;
16270;SDS011;8243;49.048;8.396;2023-09-07T11:42:47;4.30;;;3.90;;
16270;SDS011;8243;49.048;8.396;2023-09-07T11:45:13;5.50;;;4.17;;
16270;SDS011;8243;49.048;8.396;2023-09-07T11:47:40;4.00;;;3.60;;
16270;SDS011;8243;49.048;8.396;2023-09-07T11:50:06;4.33;;;3.93;;
16270;SDS011;8243;49.048;8.396;2023-09-07T11:52:32;4.70;;;4.27;;
16270;SDS011;8243;49.048;8.396;2023-09-07T11:54:58;3.90;;;3.50;;
16270;SDS011;8243;49.048;8.396;2023-09-07T11:57:24;4.33;;;4.03;;
16270;SDS011;8243;49.048;8.396;2023-09-07T11:59:51;4.00;;;3.70;;
16270;SDS011;8243;49.048;8.396;2023-09-07T12:02:17;4.60;;;4.17;;
16270;SDS011;8243;49.048;8.396;2023-09-07T12:04:46;4.27;;;3.87;;
16270;SDS011;8243;49.048;8.396;2023-09-07T12:07:12;3.80;;;3.50;;
16270;SDS011;8243;49.048;8.396;2023-09-07T12:09:38;4.97;;;3.80;;
16270;SDS011;8243;49.048;8.396;2023-09-07T12:12:04;4.23;;;3.83;;
16270;SDS011;8243;49.048;8.396;2023-09-07T12:14:30;4.30;;;3.80;;
16270;SDS011;8243;49.048;8.396;2023-09-07T12:16:56;5.27;;;3.70;;
16270;SDS011;8243;49.048;8.396;2023-09-07T12:19:22;4.40;;;4.00;;
16270;SDS011;8243;49.048;8.396;2023-09-07T12:21:48;5.23;;;3.77;;
16270;SDS011;8243;49.048;8.396;2023-09-07T12:24:16;4.10;;;3.80;;
16270;SDS011;8243;49.048;8.396;2023-09-07T12:26:42;3.90;;;3.60;;
16270;SDS011;8243;49.048;8.396;2023-09-07T12:29:07;5.13;;;3.50;;
16270;SDS011;8243;49.048;8.396;2023-09-07T12:31:34;3.53;;;3.23;;
16270;SDS011;8243;49.048;8.396;2023-09-07T12:33:59;3.60;;;3.30;;
16270;SDS011;8243;49.048;8.396;2023-09-07T12:36:25;3.70;;;3.40;;
16270;SDS011;8243;49.048;8.396;2023-09-07T12:38:54;4.83;;;3.60;;
16270;SDS011;8243;49.048;8.396;2023-09-07T12:41:27;3.97;;;3.60;;
16270;SDS011;8243;49.048;8.396;2023-09-07T12:43:54;3.53;;;3.23;;
16270;SDS011;8243;49.048;8.396;2023-09-07T12:46:20;4.20;;;3.80;;
16270;SDS011;8243;49.048;8.396;2023-09-07T12:48:46;4.40;;;3.50;;
16270;SDS011;8243;49.048;8.396;2023-09-07T12:51:11;4.90;;;3.70;;
16270;SDS011;8243;49.048;8.396;2023-09-07T12:53:37;4.13;;;3.17;;
16270;SDS011;8243;49.048;8.396;2023-09-07T12:56:03;4.80;;;2.97;;
16270;SDS011;8243;49.048;8.396;2023-09-07T12:58:29;3.63;;;3.33;;
16270;SDS011;8243;49.048;8.396;2023-09-07T13:00:55;4.20;;;3.53;;
16270;SDS011;8243;49.048;8.396;2023-09-07T13:03:21;7.13;;;3.70;;
16270;SDS011;8243;49.048;8.396;2023-09-07T13:05:47;3.97;;;3.60;;
16270;SDS011;8243;49.048;8.396;2023-09-07T13:08:14;4.00;;;3.60;;
16270;SDS011;8243;49.048;8.396;2023-09-07T13:10:41;5.83;;;3.60;;
16270;SDS011;8243;49.048;8.396;2023-09-07T13:13:10;3.67;;;3.30;;
16270;SDS011;8243;49.048;8.396;2023-09-07T13:15:36;4.20;;;3.20;;
16270;SDS011;8243;49.048;8.396;2023-09-07T13:18:02;5.13;;;3.60;;
16270;SDS011;8243;49.048;8.396;2023-09-07T13:20:27;4.37;;;3.33;;
16270;SDS011;8243;49.048;8.396;2023-09-07T13:22:53;3.10;;;2.90;;
16270;SDS011;8243;49.048;8.396;2023-09-07T13:25:18;3.50;;;3.20;;
16270;SDS011;8243;49.048;8.396;2023-09-07T13:27:44;3.80;;;3.50;;
16270;SDS011;8243;49.048;8.396;2023-09-07T13:30:09;3.10;;;2.90;;
16270;SDS011;8243;49.048;8.396;2023-09-07T13:32:37;3.90;;;3.50;;
16270;SDS011;8243;49.048;8.396;2023-09-07T13:35:03;3.30;;;3.00;;
16270;SDS011;8243;49.048;8.396;2023-09-07T13:37:29;3.90;;;3.43;;
16270;SDS011;8243;49.048;8.396;2023-09-07T13:39:55;3.93;;;3.13;;
16270;SDS011;8243;49.048;8.396;2023-09-07T13:42:21;4.50;;;3.20;;
16270;SDS011;8243;49.048;8.396;2023-09-07T13:44:46;3.47;;;3.17;;
16270;SDS011;8243;49.048;8.396;2023-09-07T13:47:12;3.97;;;3.20;;
16270;SDS011;8243;49.048;8.396;2023-09-07T13:49:38;3.10;;;2.80;;
16270;SDS011;8243;49.048;8.396;2023-09-07T13:52:04;4.03;;;3.43;;
16270;SDS011;8243;49.048;8.396;2023-09-07T13:54:29;3.53;;;3.23;;
16270;SDS011;8243;49.048;8.396;2023-09-07T13:56:55;3.37;;;3.00;;
16270;SDS011;8243;49.048;8.396;2023-09-07T13:59:21;2.87;;;2.67;;
16270;SDS011;8243;49.048;8.396;2023-09-07T14:01:47;6.80;;;3.40;;
16270;SDS011;8243;49.048;8.396;2023-09-07T14:04:14;3.43;;;3.13;;
16270;SDS011;8243;49.048;8.396;2023-09-07T14:06:40;4.40;;;3.10;;
16270;SDS011;8243;49.048;8.396;2023-09-07T14:09:05;3.53;;;3.23;;
16270;SDS011;8243;49.048;8.396;2023-09-07T14:11:31;6.63;;;3.50;;
16270;SDS011;8243;49.048;8.396;2023-09-07T14:13:58;6.87;;;3.13;;
16270;SDS011;8243;49.048;8.396;2023-09-07T14:16:24;3.93;;;2.97;;
16270;SDS011;8243;49.048;8.396;2023-09-07T14:18:50;4.40;;;3.10;;
16270;SDS011;8243;49.048;8.396;2023-09-07T14:21:16;4.07;;;3.33;;
16270;SDS011;8243;49.048;8.396;2023-09-07T14:23:42;7.73;;;3.00;;
16270;SDS011;8243;49.048;8.396;2023-09-07T14:26:08;3.57;;;3.27;;
16270;SDS011;8243;49.048;8.396;2023-09-07T14:28:34;3.70;;;3.30;;
16270;SDS011;8243;49.048;8.396;2023-09-07T14:31:02;3.20;;;2.93;;
16270;SDS011;8243;49.048;8.396;2023-09-07T14:33:29;3.40;;;3.10;;
16270;SDS011;8243;49.048;8.396;2023-09-07T14:35:55;3.47;;;3.10;;
16270;SDS011;8243;49.048;8.396;2023-09-07T14:38:21;3.57;;;2.90;;
16270;SDS011;8243;49.048;8.396;2023-09-07T14:40:49;3.80;;;3.20;;
16270;SDS011;8243;49.048;8.396;2023-09-07T14:43:16;4.43;;;3.00;;
16270;SDS011;8243;49.048;8.396;2023-09-07T14:45:42;4.47;;;3.27;;
16270;SDS011;8243;49.048;8.396;2023-09-07T14:48:09;4.83;;;3.00;;
16270;SDS011;8243;49.048;8.396;2023-09-07T14:50:34;3.80;;;3.50;;
16270;SDS011;8243;49.048;8.396;2023-09-07T14:53:00;3.73;;;3.13;;
16270;SDS011;8243;49.048;8.396;2023-09-07T14:55:25;3.97;;;3.40;;
16270;SDS011;8243;49.048;8.396;2023-09-07T14:57:51;6.60;;;2.97;;
16270;SDS011;8243;49.048;8.396;2023-09-07T15:00:17;5.50;;;3.33;;
16270;SDS011;8243;49.048;8.396;2023-09-07T15:02:44;5.90;;;3.23;;
16270;SDS011;8243;49.048;8.396;2023-09-07T15:05:11;3.73;;;3.20;;
16270;SDS011;8243;49.048;8.396;2023-09-07T15:07:38;4.00;;;2.90;;